createdAt,value
2019-04-23T00:00:03.412Z,56.1
2019-04-23T00:01:16.488Z,56.1
2019-04-23T00:02:04.135Z,56.5
2019-04-23T00:03:08.283Z,57.1
2019-04-23T00:04:07.205Z,56.7
2019-04-23T00:05:08.334Z,56.7
2019-04-23T00:06:32.178Z,56.8
2019-04-23T00:07:26.977Z,56.2
2019-04-23T00:08:18.377Z,56.5
2019-04-23T00:09:22.283Z,56.8
2019-04-23T00:10:19.311Z,56.6
2019-04-23T00:11:20.491Z,56.3
2019-04-23T00:12:23.823Z,57.2
2019-04-23T00:13:24.149Z,56.9
2019-04-23T00:15:35.850Z,56.6
2019-04-23T00:19:33.082Z,56.9
2019-04-23T00:20:27.282Z,56.6
2019-04-23T00:21:33.397Z,57.0
2019-04-23T00:22:36.766Z,56.6
2019-04-23T00:23:47.987Z,57.3
2019-04-23T00:25:07.755Z,57.4
2019-04-23T00:25:56.184Z,56.9
2019-04-23T00:26:52.139Z,57.4
2019-04-23T00:27:47.293Z,57.7
2019-04-23T00:28:42.186Z,57.4
2019-04-23T00:29:53.385Z,57.1
2019-04-23T00:30:51.520Z,56.9
2019-04-23T00:31:49.931Z,57.3
2019-04-23T00:32:48.083Z,57.8
2019-04-23T00:33:51.190Z,59.4
2019-04-23T00:34:54.733Z,58.3
2019-04-23T00:35:53.357Z,58.4
2019-04-23T00:37:01.810Z,58.4
2019-04-23T00:37:55.052Z,58.4
2019-04-23T00:38:54.246Z,58.6
2019-04-23T00:39:56.606Z,58.2
2019-04-23T00:41:05.629Z,58.1
2019-04-23T00:42:07.096Z,58.2
2019-04-23T00:43:09.201Z,58.5
2019-04-23T00:44:15.170Z,57.8
2019-04-23T00:45:12.798Z,58.2
2019-04-23T00:46:09.524Z,58.1
2019-04-23T00:47:16.395Z,58.5
2019-04-23T00:48:22.959Z,59.6
2019-04-23T00:49:21.184Z,58.9
2019-04-23T00:50:19.335Z,58.1
2019-04-23T00:51:17.667Z,59.1
2019-04-23T00:52:24.051Z,59.0
2019-04-23T00:53:22.083Z,58.7
2019-04-23T00:54:39.341Z,58.3
2019-04-23T00:55:22.567Z,58.6
2019-04-23T00:56:42.163Z,59.1
2019-04-23T00:57:29.013Z,58.9
2019-04-23T00:59:39.482Z,59.5
2019-04-23T01:00:47.483Z,58.8
2019-04-23T01:01:38.843Z,59.2
2019-04-23T01:02:37.443Z,59.3
2019-04-23T01:03:29.477Z,59.3
2019-04-23T01:04:46.061Z,60.2
2019-04-23T01:06:41.448Z,59.2
2019-04-23T01:07:48.331Z,59.2
2019-04-23T01:08:45.548Z,59.2
2019-04-23T01:09:48.894Z,59.2
2019-04-23T01:10:53.969Z,59.2
2019-04-23T01:11:48.189Z,59.4
2019-04-23T01:12:54.343Z,59.7
2019-04-23T01:13:50.975Z,59.4
2019-04-23T01:14:48.245Z,59.3
2019-04-23T01:15:53.722Z,58.9
2019-04-23T01:16:48.422Z,59.2
2019-04-23T01:18:01.971Z,59.4
2019-04-23T01:18:54.079Z,59.4
2019-04-23T01:20:15.013Z,59.2
2019-04-23T01:20:53.475Z,59.9
2019-04-23T01:21:41.557Z,60.5
2019-04-23T01:22:44.191Z,60.4
2019-04-23T01:23:53.785Z,60.0
2019-04-23T01:24:46.688Z,60.3
2019-04-23T01:25:57.707Z,60.5
2019-04-23T01:27:22.176Z,61.1
2019-04-23T01:28:17.467Z,60.9
2019-04-23T01:29:21.413Z,60.8
2019-04-23T01:30:19.694Z,60.6
2019-04-23T01:31:20.215Z,60.6
2019-04-23T01:32:20.829Z,60.7
2019-04-23T01:33:27.161Z,61.3
2019-04-23T01:34:27.634Z,60.6
2019-04-23T01:35:25.417Z,61.5
2019-04-23T01:36:25.390Z,60.9
2019-04-23T01:37:30.083Z,60.5
2019-04-23T01:38:35.584Z,60.7
2019-04-23T01:39:28.014Z,60.8
2019-04-23T01:41:33.699Z,61.6
2019-04-23T01:42:42.186Z,61.3
2019-04-23T01:43:53.552Z,60.8
2019-04-23T01:44:42.347Z,61.3
2019-04-23T01:45:32.705Z,61.0
2019-04-23T01:46:41.964Z,61.1
2019-04-23T01:47:45.817Z,61.5
2019-04-23T01:48:48.243Z,61.7
2019-04-23T01:49:54.654Z,62.3
2019-04-23T01:50:48.674Z,62.9
2019-04-23T01:51:53.272Z,63.1
2019-04-23T01:52:52.325Z,62.5
2019-04-23T01:53:49.712Z,62.4
2019-04-23T01:54:52.870Z,62.5
2019-04-23T01:56:56.725Z,62.6
2019-04-23T01:58:07.012Z,62.5
2019-04-23T01:59:00.255Z,62.3
2019-04-23T02:00:03.200Z,64.4
2019-04-23T02:01:00.726Z,63.6
2019-04-23T02:02:08.691Z,62.8
2019-04-23T02:04:09.662Z,63.0
2019-04-23T02:05:15.981Z,63.1
2019-04-23T02:07:11.437Z,63.0
2019-04-23T02:09:13.987Z,62.9
2019-04-23T02:10:21.909Z,63.6
2019-04-23T02:11:11.450Z,63.4
2019-04-23T02:12:18.070Z,64.1
2019-04-23T02:13:28.086Z,64.0
2019-04-23T02:14:24.869Z,64.1
2019-04-23T02:15:23.104Z,63.7
2019-04-23T02:16:25.355Z,64.3
2019-04-23T02:17:29.428Z,63.4
2019-04-23T02:18:41.663Z,63.2
2019-04-23T02:19:29.414Z,64.0
2019-04-23T02:20:39.470Z,63.2
2019-04-23T02:21:35.350Z,64.0
2019-04-23T02:22:38.214Z,64.0
2019-04-23T02:24:41.326Z,63.3
2019-04-23T02:25:45.762Z,63.9
2019-04-23T02:26:36.922Z,63.6
2019-04-23T02:27:42.316Z,64.7
2019-04-23T02:28:46.389Z,64.5
2019-04-23T02:29:57.426Z,64.2
2019-04-23T02:32:01.320Z,64.7
2019-04-23T02:32:59.252Z,64.5
2019-04-23T02:34:06.659Z,64.8
2019-04-23T02:38:11.152Z,64.7
2019-04-23T02:42:18.727Z,65.2
2019-04-23T02:43:16.263Z,64.7
2019-04-23T02:45:12.932Z,64.7
2019-04-23T02:46:08.149Z,65.1
2019-04-23T02:47:16.862Z,64.6
2019-04-23T02:48:19.691Z,65.6
2019-04-23T02:49:20.439Z,65.7
2019-04-23T02:51:22.425Z,64.6
2019-04-23T02:52:21.719Z,66.0
2019-04-23T02:53:36.134Z,66.4
2019-04-23T02:54:37.570Z,66.1
2019-04-23T02:56:41.811Z,65.5
2019-04-23T02:57:28.871Z,65.7
2019-04-23T02:59:57.747Z,65.8
2019-04-23T03:02:43.758Z,65.9
2019-04-23T03:04:42.127Z,66.4
2019-04-23T03:06:55.969Z,66.5
2019-04-23T03:08:49.205Z,67.2
2019-04-23T03:09:45.205Z,66.4
2019-04-23T03:10:59.868Z,66.1
2019-04-23T03:11:48.388Z,66.6
2019-04-23T03:13:12.308Z,66.3
2019-04-23T03:13:53.975Z,66.1
2019-04-23T03:16:04.187Z,66.8
2019-04-23T03:17:08.263Z,66.1
2019-04-23T03:18:16.295Z,66.1
2019-04-23T03:22:01.682Z,66.6
2019-04-23T03:24:11.361Z,66.2
2019-04-23T03:25:12.931Z,66.3
2019-04-23T03:26:16.016Z,66.3
2019-04-23T03:27:17.138Z,66.5
2019-04-23T03:28:23.063Z,67.0
2019-04-23T03:29:21.985Z,67.2
2019-04-23T03:30:30.191Z,67.5
2019-04-23T03:32:45.805Z,66.8
2019-04-23T03:33:55.504Z,67.5
2019-04-23T03:36:14.104Z,67.0
2019-04-23T03:38:41.727Z,68.5
2019-04-23T03:39:40.078Z,67.8
2019-04-23T03:40:21.429Z,68.8
2019-04-23T03:42:33.135Z,67.8
2019-04-23T03:44:43.876Z,68.8
2019-04-23T03:46:40.243Z,67.7
2019-04-23T03:49:48.728Z,68.2
2019-04-23T03:50:38.939Z,67.8
2019-04-23T03:51:52.176Z,67.7
2019-04-23T03:52:47.065Z,67.6
2019-04-23T03:56:17.854Z,67.5
2019-04-23T03:57:52.255Z,67.8
2019-04-23T04:00:03.486Z,67.9
2019-04-23T04:02:35.263Z,67.8
2019-04-23T04:05:10.536Z,68.5
2019-04-23T04:06:14.211Z,68.6
2019-04-23T04:11:18.203Z,69.9
2019-04-23T04:12:21.104Z,68.9
2019-04-23T04:13:22.251Z,69.1
2019-04-23T04:17:32.546Z,70.1
2019-04-23T04:18:39.188Z,70.2
2019-04-23T04:20:35.615Z,69.0
2019-04-23T04:21:33.703Z,68.7
2019-04-23T04:23:42.742Z,68.5
2019-04-23T04:25:39.313Z,69.0
2019-04-23T04:27:00.153Z,68.7
2019-04-23T04:27:46.025Z,68.9
2019-04-23T04:28:48.493Z,70.1
2019-04-23T04:31:48.126Z,69.1
2019-04-23T04:32:58.875Z,69.0
2019-04-23T04:34:00.714Z,68.8
2019-04-23T04:35:58.360Z,68.5
2019-04-23T04:37:24.309Z,69.8
2019-04-23T04:41:04.302Z,68.7
2019-04-23T04:42:04.600Z,70.1
2019-04-23T04:44:22.153Z,70.1
2019-04-23T04:45:30.559Z,70.0
2019-04-23T04:47:33.875Z,70.2
2019-04-23T04:48:01.401Z,70.1
2019-04-23T04:49:14.987Z,69.5
2019-04-23T04:50:08.226Z,69.6
2019-04-23T04:51:24.332Z,69.8
2019-04-23T04:52:34.610Z,69.8
2019-04-23T04:53:46.751Z,70.3
2019-04-23T04:54:17.879Z,69.3
2019-04-23T04:55:23.834Z,69.6
2019-04-23T04:56:30.277Z,69.9
2019-04-23T04:57:30.672Z,69.7
2019-04-23T04:58:30.841Z,69.3
2019-04-23T04:59:25.642Z,69.9
2019-04-23T05:00:34.850Z,70.4
2019-04-23T05:01:25.936Z,69.5
2019-04-23T05:03:26.903Z,69.2
2019-04-23T05:04:37.829Z,69.1
2019-04-23T05:06:46.470Z,68.8
2019-04-23T05:07:50.066Z,68.9
2019-04-23T05:08:37.262Z,68.8
2019-04-23T05:09:48.288Z,68.8
2019-04-23T05:12:36.071Z,69.0
2019-04-23T05:14:52.748Z,69.1
2019-04-23T05:15:44.797Z,68.7
2019-04-23T05:16:54.700Z,69.9
2019-04-23T05:18:56.802Z,68.8
2019-04-23T05:19:51.087Z,67.6
2019-04-23T05:22:01.026Z,67.5
2019-04-23T05:24:05.909Z,67.6
2019-04-23T05:24:51.343Z,67.6
2019-04-23T05:26:02.027Z,67.4
2019-04-23T05:26:57.984Z,67.6
2019-04-23T05:29:11.425Z,67.8
2019-04-23T05:30:09.861Z,67.4
2019-04-23T05:31:09.823Z,67.9
2019-04-23T05:32:10.122Z,67.2
2019-04-23T05:33:12.934Z,67.4
2019-04-23T05:35:13.614Z,67.4
2019-04-23T05:37:15.942Z,66.6
2019-04-23T05:38:32.675Z,67.7
2019-04-23T05:39:26.890Z,67.7
2019-04-23T05:40:30.216Z,67.2
2019-04-23T05:41:38.439Z,67.5
2019-04-23T05:42:19.592Z,67.5
2019-04-23T05:43:19.356Z,66.4
2019-04-23T05:45:21.650Z,66.8
2019-04-23T05:46:40.699Z,66.3
2019-04-23T05:47:27.924Z,66.5
2019-04-23T05:48:47.218Z,67.5
2019-04-23T05:49:31.776Z,66.5
2019-04-23T05:50:44.419Z,65.7
2019-04-23T05:52:43.771Z,64.9
2019-04-23T05:53:39.635Z,65.0
2019-04-23T05:54:43.344Z,64.8
2019-04-23T05:55:46.077Z,65.2
2019-04-23T05:56:38.580Z,65.8
2019-04-23T05:57:38.532Z,64.6
2019-04-23T05:58:47.998Z,64.8
2019-04-23T06:02:58.920Z,65.1
2019-04-23T06:03:56.980Z,64.6
2019-04-23T06:04:49.902Z,64.8
2019-04-23T06:05:57.930Z,63.9
2019-04-23T06:07:11.384Z,64.6
2019-04-23T06:07:53.534Z,64.8
2019-04-23T06:09:02.920Z,64.3
2019-04-23T06:09:59.335Z,64.0
2019-04-23T06:11:01.920Z,64.1
2019-04-23T06:12:01.412Z,64.0
2019-04-23T06:13:09.944Z,64.3
2019-04-23T06:15:05.628Z,63.6
2019-04-23T06:16:13.742Z,64.2
2019-04-23T06:18:21.687Z,63.2
2019-04-23T06:19:18.930Z,63.3
2019-04-23T06:20:20.058Z,63.1
2019-04-23T06:21:15.650Z,63.0
2019-04-23T06:22:26.949Z,62.6
2019-04-23T06:23:32.612Z,62.7
2019-04-23T06:24:34.970Z,62.5
2019-04-23T06:25:45.971Z,62.0
2019-04-23T06:26:33.058Z,61.7
2019-04-23T06:27:26.058Z,60.6
2019-04-23T06:28:27.673Z,60.5
2019-04-23T06:29:31.889Z,59.2
2019-04-23T06:30:45.531Z,58.7
2019-04-23T06:31:40.745Z,57.9
2019-04-23T06:32:34.224Z,56.0
2019-04-23T06:33:39.668Z,53.7
2019-04-23T06:34:38.244Z,52.7
2019-04-23T06:35:43.800Z,51.0
2019-04-23T06:36:38.503Z,50.4
2019-04-23T06:38:07.723Z,49.2
2019-04-23T06:38:54.996Z,48.1
2019-04-23T06:39:42.832Z,47.3
2019-04-23T06:41:00.821Z,47.1
2019-04-23T06:41:51.627Z,46.2
2019-04-23T06:42:44.975Z,45.8
2019-04-23T06:43:56.266Z,43.3
2019-04-23T06:44:54.914Z,41.8
2019-04-23T06:45:53.159Z,42.0
2019-04-23T06:47:54.183Z,40.5
2019-04-23T06:48:56.269Z,39.1
2019-04-23T06:49:55.580Z,38.7
2019-04-23T06:51:09.356Z,37.6
2019-04-23T06:52:08.403Z,37.8
2019-04-23T06:52:55.826Z,38.8
2019-04-23T06:54:08.727Z,38.8
2019-04-23T06:56:14.276Z,37.7
2019-04-23T06:57:15.100Z,36.7
2019-04-23T06:58:12.326Z,35.4
2019-04-23T06:59:11.987Z,34.9
2019-04-23T07:00:13.902Z,35.3
2019-04-23T07:01:13.279Z,34.7
2019-04-23T07:02:33.250Z,34.1
2019-04-23T07:04:18.177Z,32.6
2019-04-23T07:05:40.952Z,32.5
2019-04-23T07:08:39.840Z,31.1
2019-04-23T07:09:41.484Z,30.7
2019-04-23T07:10:25.453Z,30.5
2019-04-23T07:11:39.414Z,29.2
2019-04-23T07:12:35.019Z,28.2
2019-04-23T07:13:40.222Z,27.2
2019-04-23T07:14:38.659Z,25.1
2019-04-23T07:16:34.640Z,25.3
2019-04-23T07:17:38.135Z,25.4
2019-04-23T07:18:34.493Z,24.6
2019-04-23T07:19:42.374Z,24.8
2019-04-23T07:20:46.488Z,25.1
2019-04-23T07:21:42.422Z,24.9
2019-04-23T07:22:46.887Z,24.0
2019-04-23T07:23:54.417Z,25.2
2019-04-23T07:24:51.111Z,25.4
2019-04-23T07:26:03.795Z,25.7
2019-04-23T07:26:49.360Z,26.5
2019-04-23T07:27:54.357Z,27.5
2019-04-23T07:28:53.160Z,29.7
2019-04-23T07:30:03.949Z,30.2
2019-04-23T07:31:02.417Z,31.2
2019-04-23T07:32:57.251Z,30.5
2019-04-23T07:34:01.287Z,29.0
2019-04-23T07:35:08.718Z,26.6
2019-04-23T07:36:08.643Z,24.9
2019-04-23T07:37:07.180Z,25.6
2019-04-23T07:38:14.657Z,24.8
2019-04-23T07:40:23.014Z,35.6
2019-04-23T07:41:18.610Z,45.7
2019-04-23T07:43:15.567Z,52.4
2019-04-23T07:44:23.759Z,52.3
2019-04-23T07:45:24.293Z,53.1
2019-04-23T07:46:29.706Z,53.8
2019-04-23T07:47:21.731Z,53.3
2019-04-23T07:48:16.415Z,54.9
2019-04-23T07:49:23.729Z,55.4
2019-04-23T07:50:35.255Z,54.5
2019-04-23T07:51:27.389Z,53.9
2019-04-23T07:52:34.141Z,55.0
2019-04-23T07:53:46.523Z,54.7
2019-04-23T07:54:35.072Z,55.2
2019-04-23T07:55:43.389Z,55.1
2019-04-23T07:56:35.996Z,54.5
2019-04-23T07:57:38.155Z,54.4
2019-04-23T07:58:44.776Z,54.9
2019-04-23T07:59:47.114Z,53.0
2019-04-23T08:00:52.261Z,53.3
2019-04-23T08:01:39.294Z,54.6
2019-04-23T08:02:35.906Z,55.1
2019-04-23T08:03:45.020Z,54.4
2019-04-23T08:04:55.650Z,53.9
2019-04-23T08:05:42.631Z,53.1
2019-04-23T08:06:49.061Z,53.2
2019-04-23T08:07:54.222Z,54.3
2019-04-23T08:08:50.826Z,53.6
2019-04-23T08:09:53.220Z,53.5
2019-04-23T08:11:21.916Z,55.2
2019-04-23T08:11:56.296Z,55.2
2019-04-23T08:12:58.478Z,54.6
2019-04-23T08:13:59.047Z,54.2
2019-04-23T08:14:59.962Z,55.2
2019-04-23T08:16:10.720Z,54.8
2019-04-23T08:16:58.195Z,53.9
2019-04-23T08:18:07.254Z,53.8
2019-04-23T08:19:06.016Z,54.8
2019-04-23T08:20:09.524Z,54.4
2019-04-23T08:21:09.845Z,53.8
2019-04-23T08:22:20.427Z,54.5
2019-04-23T08:23:14.019Z,55.3
2019-04-23T08:24:35.857Z,55.2
2019-04-23T08:25:12.573Z,54.8
2019-04-23T08:26:26.762Z,53.1
2019-04-23T08:27:29.730Z,53.3
2019-04-23T08:28:25.450Z,53.9
2019-04-23T08:29:27.754Z,54.7
2019-04-23T08:30:15.960Z,55.4
2019-04-23T08:31:22.003Z,55.3
2019-04-23T08:32:27.868Z,56.2
2019-04-23T08:33:23.406Z,54.9
2019-04-23T08:34:36.878Z,53.9
2019-04-23T08:35:26.739Z,54.8
2019-04-23T08:36:34.532Z,55.4
2019-04-23T08:37:34.663Z,53.8
2019-04-23T08:40:33.861Z,53.0
2019-04-23T08:41:46.579Z,52.9
2019-04-23T08:42:45.365Z,54.0
2019-04-23T08:45:05.416Z,53.8
2019-04-23T08:45:38.440Z,52.7
2019-04-23T08:46:52.029Z,52.4
2019-04-23T08:47:49.037Z,53.0
2019-04-23T08:48:55.986Z,53.9
2019-04-23T08:49:47.040Z,53.3
2019-04-23T08:51:18.140Z,52.2
2019-04-23T08:52:52.084Z,49.2
2019-04-23T08:53:57.129Z,49.1
2019-04-23T08:55:06.081Z,50.6
2019-04-23T08:56:08.690Z,49.1
2019-04-23T08:57:04.132Z,49.1
2019-04-23T08:57:59.915Z,49.3
2019-04-23T08:59:07.169Z,47.8
2019-04-23T09:00:05.638Z,46.9
2019-04-23T09:01:05.131Z,46.5
2019-04-23T09:02:24.221Z,46.4
2019-04-23T09:03:13.165Z,46.9
2019-04-23T09:04:09.270Z,46.2
2019-04-23T09:05:19.329Z,43.7
2019-04-23T09:06:12.367Z,41.8
2019-04-23T09:07:16.569Z,44.3
2019-04-23T09:09:21.994Z,46.0
2019-04-23T09:10:19.624Z,43.6
2019-04-23T09:12:23.922Z,42.4
2019-04-23T09:14:15.337Z,42.2
2019-04-23T09:15:30.154Z,41.0
2019-04-23T09:16:32.610Z,41.5
2019-04-23T09:18:26.311Z,43.5
2019-04-23T09:19:32.116Z,41.5
2019-04-23T09:20:29.432Z,41.7
2019-04-23T09:21:37.409Z,41.0
2019-04-23T09:22:34.432Z,39.5
2019-04-23T09:23:41.597Z,38.8
2019-04-23T09:24:43.189Z,42.0
2019-04-23T09:25:40.776Z,43.1
2019-04-23T09:26:40.888Z,42.5
2019-04-23T09:27:41.891Z,42.7
2019-04-23T09:28:45.749Z,45.1
2019-04-23T09:29:56.007Z,44.5
2019-04-23T09:30:49.554Z,45.2
2019-04-23T09:32:43.478Z,46.1
2019-04-23T09:33:51.705Z,43.5
2019-04-23T09:35:02.469Z,44.4
2019-04-23T09:35:57.268Z,46.0
2019-04-23T09:36:59.639Z,47.0
2019-04-23T09:38:03.105Z,48.5
2019-04-23T09:39:00.179Z,49.0
2019-04-23T09:40:10.827Z,49.2
2019-04-23T09:42:07.103Z,49.4
2019-04-23T09:44:14.400Z,50.0
2019-04-23T09:45:23.187Z,50.0
2019-04-23T09:46:11.994Z,50.0
2019-04-23T09:47:13.894Z,49.2
2019-04-23T09:48:09.731Z,48.2
2019-04-23T09:49:14.882Z,48.2
2019-04-23T09:50:15.574Z,48.6
2019-04-23T09:51:17.272Z,47.7
2019-04-23T09:52:20.052Z,45.1
2019-04-23T09:55:31.206Z,40.5
2019-04-23T09:56:28.022Z,41.1
2019-04-23T09:57:28.079Z,45.4
2019-04-23T09:58:38.027Z,45.6
2019-04-23T10:00:38.105Z,41.6
2019-04-23T10:02:21.607Z,41.8
2019-04-23T10:03:20.971Z,43.5
2019-04-23T10:04:19.442Z,43.1
2019-04-23T10:05:22.645Z,45.1
2019-04-23T10:06:18.149Z,47.0
2019-04-23T10:07:24.634Z,46.6
2019-04-23T10:08:21.059Z,45.5
2019-04-23T10:09:16.118Z,46.0
2019-04-23T10:10:16.460Z,48.6
2019-04-23T10:11:19.552Z,48.8
2019-04-23T10:12:19.960Z,48.1
2019-04-23T10:13:21.898Z,47.5
2019-04-23T10:14:21.780Z,47.2
2019-04-23T10:15:28.810Z,47.4
2019-04-23T10:16:27.654Z,48.1
2019-04-23T10:17:26.237Z,47.6
2019-04-23T10:18:29.034Z,47.2
2019-04-23T10:19:28.983Z,47.9
2019-04-23T10:20:30.826Z,47.7
2019-04-23T10:21:33.206Z,47.4
2019-04-23T10:22:35.822Z,48.1
2019-04-23T10:23:34.810Z,47.7
2019-04-23T10:24:36.990Z,47.6
2019-04-23T10:25:38.331Z,48.3
2019-04-23T10:26:39.921Z,47.4
2019-04-23T10:27:41.323Z,47.4
2019-04-23T10:28:42.209Z,47.8
2019-04-23T10:29:43.654Z,47.9
2019-04-23T10:30:44.908Z,48.4
2019-04-23T10:31:46.190Z,49.6
2019-04-23T10:32:47.777Z,50.3
2019-04-23T10:33:50.281Z,51.0
2019-04-23T10:35:03.805Z,49.8
2019-04-23T10:35:58.914Z,49.8
2019-04-23T10:36:53.599Z,50.4
2019-04-23T10:38:01.848Z,50.8
2019-04-23T10:39:04.943Z,51.0
2019-04-23T10:40:01.214Z,51.0
2019-04-23T10:41:00.332Z,51.5
2019-04-23T10:42:02.834Z,50.7
2019-04-23T10:43:03.502Z,50.6
2019-04-23T10:44:04.819Z,50.4
2019-04-23T10:45:19.336Z,50.8
2019-04-23T10:46:27.866Z,50.5
2019-04-23T10:47:35.467Z,51.1
2019-04-23T10:48:40.235Z,51.1
2019-04-23T10:49:51.032Z,52.5
2019-04-23T10:50:59.803Z,52.9
2019-04-23T10:51:41.297Z,52.0
2019-04-23T10:52:36.447Z,51.7
2019-04-23T10:53:44.330Z,51.5
2019-04-23T10:54:45.378Z,51.4
2019-04-23T10:55:58.897Z,50.4
2019-04-23T10:56:53.753Z,50.9
2019-04-23T10:57:46.119Z,50.8
2019-04-23T10:58:45.503Z,50.7
2019-04-23T10:59:47.317Z,50.8
2019-04-23T11:00:59.825Z,50.8
2019-04-23T11:02:11.562Z,50.9
2019-04-23T11:02:59.329Z,51.2
2019-04-23T11:04:08.331Z,52.2
2019-04-23T11:05:26.623Z,53.2
2019-04-23T11:08:03.460Z,53.2
2019-04-23T11:09:13.127Z,53.1
2019-04-23T11:10:14.537Z,52.4
2019-04-23T11:11:14.572Z,51.3
2019-04-23T11:12:23.666Z,50.2
2019-04-23T11:13:17.545Z,51.9
2019-04-23T11:14:19.535Z,52.8
2019-04-23T11:15:30.379Z,52.8
2019-04-23T11:16:46.179Z,52.9
2019-04-23T11:17:30.188Z,54.0
2019-04-23T11:18:33.820Z,52.9
2019-04-23T11:19:29.787Z,52.4
2019-04-23T11:20:30.687Z,52.8
2019-04-23T11:21:28.253Z,52.9
2019-04-23T11:23:31.345Z,51.6
2019-04-23T11:24:36.218Z,52.1
2019-04-23T11:26:35.621Z,52.4
2019-04-23T11:27:37.686Z,51.8
2019-04-23T11:28:33.188Z,52.6
2019-04-23T11:30:36.471Z,50.7
2019-04-23T11:32:57.314Z,50.5
2019-04-23T11:33:46.370Z,50.9
2019-04-23T11:35:06.815Z,50.0
2019-04-23T11:36:20.499Z,49.9
2019-04-23T11:36:53.697Z,49.2
2019-04-23T11:38:06.495Z,50.0
2019-04-23T11:38:54.385Z,51.2
2019-04-23T11:39:49.618Z,50.8
2019-04-23T11:40:49.283Z,50.9
2019-04-23T11:41:59.829Z,50.4
2019-04-23T11:43:06.137Z,50.5
2019-04-23T11:43:58.913Z,50.6
2019-04-23T11:46:10.992Z,51.0
2019-04-23T11:47:08.619Z,51.4
2019-04-23T11:49:42.386Z,52.3
2019-04-23T11:50:14.161Z,52.6
2019-04-23T11:51:37.868Z,51.5
2019-04-23T11:53:10.526Z,52.5
2019-04-23T11:54:25.779Z,52.8
2019-04-23T11:55:26.178Z,53.6
2019-04-23T11:56:22.764Z,53.0
2019-04-23T11:58:20.803Z,53.9
2019-04-23T11:59:31.914Z,52.9
2019-04-23T12:00:31.774Z,53.0
2019-04-23T12:02:23.230Z,54.0
2019-04-23T12:03:19.370Z,53.9
2019-04-23T12:04:35.014Z,54.0
2019-04-23T12:05:38.769Z,54.1
2019-04-23T12:06:32.845Z,53.9
2019-04-23T12:07:36.106Z,53.9
2019-04-23T12:08:43.214Z,54.2
2019-04-23T12:09:45.123Z,53.5
2019-04-23T12:11:08.476Z,53.8
2019-04-23T12:11:54.559Z,53.7
2019-04-23T12:12:44.808Z,53.4
2019-04-23T12:13:45.629Z,53.2
2019-04-23T12:16:57.354Z,53.6
2019-04-23T12:17:49.084Z,53.6
2019-04-23T12:19:14.459Z,53.6
2019-04-23T12:19:56.126Z,53.8
2019-04-23T12:20:45.050Z,53.7
2019-04-23T12:22:01.511Z,54.2
2019-04-23T12:24:17.125Z,53.8
2019-04-23T12:25:18.117Z,53.4
2019-04-23T12:26:04.541Z,53.8
2019-04-23T12:27:51.732Z,53.1
2019-04-23T12:30:08.589Z,53.7
2019-04-23T12:31:11.866Z,53.6
2019-04-23T12:32:30.915Z,54.2
2019-04-23T12:33:10.637Z,55.0
2019-04-23T12:34:16.592Z,54.3
2019-04-23T12:36:21.394Z,53.5
2019-04-23T12:37:21.372Z,53.4
2019-04-23T12:38:18.954Z,54.1
2019-04-23T12:39:18.466Z,53.8
2019-04-23T12:40:19.902Z,53.4
2019-04-23T12:41:20.720Z,54.0
2019-04-23T12:42:45.353Z,54.1
2019-04-23T12:43:19.248Z,54.1
2019-04-23T12:44:22.094Z,54.0
2019-04-23T12:45:31.822Z,53.7
2019-04-23T12:46:32.585Z,53.9
2019-04-23T12:47:43.655Z,53.3
2019-04-23T12:48:41.327Z,53.7
2019-04-23T12:50:46.861Z,52.9
2019-04-23T12:51:41.591Z,53.8
2019-04-23T12:53:34.686Z,53.7
2019-04-23T12:54:51.591Z,53.8
2019-04-23T12:56:48.665Z,53.8
2019-04-23T12:57:46.942Z,54.1
2019-04-23T12:58:32.203Z,53.3
2019-04-23T12:59:50.089Z,53.6
2019-04-23T13:00:38.872Z,53.7
2019-04-23T13:01:55.954Z,54.3
2019-04-23T13:03:49.194Z,54.1
2019-04-23T13:04:55.073Z,54.3
2019-04-23T13:05:42.344Z,54.3
2019-04-23T13:07:00.177Z,53.6
2019-04-23T13:08:22.066Z,53.6
2019-04-23T13:09:07.292Z,54.0
2019-04-23T13:10:14.911Z,54.9
2019-04-23T13:10:59.039Z,53.9
2019-04-23T13:12:16.521Z,53.9
2019-04-23T13:13:09.437Z,54.2
2019-04-23T13:14:08.593Z,55.0
2019-04-23T13:15:13.910Z,54.3
2019-04-23T13:16:14.778Z,55.0
2019-04-23T13:17:27.073Z,53.6
2019-04-23T13:18:15.333Z,53.9
2019-04-23T13:19:28.001Z,53.8
2019-04-23T13:20:20.442Z,53.8
2019-04-23T13:21:39.938Z,53.7
2019-04-23T13:22:23.382Z,54.1
2019-04-23T13:24:15.940Z,53.5
2019-04-23T13:25:27.223Z,54.0
2019-04-23T13:26:09.005Z,53.6
2019-04-23T13:27:29.378Z,53.1
2019-04-23T13:28:27.434Z,54.3
2019-04-23T13:29:38.201Z,54.1
2019-04-23T13:30:44.795Z,53.5
2019-04-23T13:31:43.928Z,53.6
2019-04-23T13:32:43.364Z,53.3
2019-04-23T13:33:42.154Z,53.1
2019-04-23T13:34:41.561Z,54.0
2019-04-23T13:35:49.989Z,53.8
2019-04-23T13:36:36.241Z,53.7
2019-04-23T13:37:46.454Z,53.7
2019-04-23T13:39:54.110Z,54.2
2019-04-23T13:41:01.162Z,54.8
2019-04-23T13:41:38.864Z,54.3
2019-04-23T13:43:42.632Z,54.1
2019-04-23T13:44:55.938Z,54.1
2019-04-23T13:46:49.770Z,55.1
2019-04-23T13:48:01.174Z,53.9
2019-04-23T13:48:46.925Z,53.1
2019-04-23T13:49:57.201Z,53.7
2019-04-23T13:51:00.285Z,53.3
2019-04-23T13:52:12.775Z,53.7
2019-04-23T13:53:58.812Z,53.7
2019-04-23T13:56:03.996Z,53.3
2019-04-23T13:57:36.372Z,53.7
2019-04-23T13:59:15.876Z,54.3
2019-04-23T14:00:20.691Z,54.1
2019-04-23T14:01:24.644Z,54.1
2019-04-23T14:02:23.547Z,54.2
2019-04-23T14:03:26.363Z,54.0
2019-04-23T14:04:22.583Z,54.1
2019-04-23T14:05:22.169Z,53.7
2019-04-23T14:07:25.192Z,54.0
2019-04-23T14:08:34.862Z,54.7
2019-04-23T14:09:32.918Z,54.2
2019-04-23T14:10:43.462Z,53.9
2019-04-23T14:12:32.220Z,54.1
2019-04-23T14:13:37.262Z,54.1
2019-04-23T14:14:41.697Z,54.2
2019-04-23T14:15:41.112Z,55.0
2019-04-23T14:16:48.804Z,54.8
2019-04-23T14:19:34.296Z,54.6
2019-04-23T14:20:40.442Z,54.1
2019-04-23T14:21:44.521Z,54.0
2019-04-23T14:23:00.219Z,54.3
2019-04-23T14:24:54.389Z,54.9
2019-04-23T14:25:59.869Z,55.0
2019-04-23T14:27:10.806Z,54.9
2019-04-23T14:28:01.292Z,54.7
2019-04-23T14:29:04.535Z,54.4
2019-04-23T14:30:13.182Z,54.8
2019-04-23T14:32:04.257Z,55.4
2019-04-23T14:33:03.681Z,54.8
2019-04-23T14:34:04.789Z,54.6
2019-04-23T14:36:01.239Z,55.0
2019-04-23T14:37:17.560Z,54.4
2019-04-23T14:38:25.186Z,54.9
2019-04-23T14:39:10.066Z,54.5
2019-04-23T14:40:16.795Z,54.9
2019-04-23T14:42:33.673Z,55.6
2019-04-23T14:45:47.386Z,55.3
2019-04-23T14:48:33.014Z,54.7
2019-04-23T14:49:22.079Z,54.7
2019-04-23T14:50:31.985Z,55.5
2019-04-23T14:52:28.793Z,55.4
2019-04-23T14:53:24.398Z,55.5
2019-04-23T14:55:17.428Z,54.9
2019-04-23T14:56:42.244Z,54.9
2019-04-23T14:58:57.587Z,54.6
2019-04-23T14:59:36.180Z,55.1
2019-04-23T15:00:41.355Z,54.5
2019-04-23T15:02:45.048Z,54.2
2019-04-23T15:03:46.530Z,54.9
2019-04-23T15:05:03.667Z,55.1
2019-04-23T15:05:56.202Z,55.6
2019-04-23T15:06:50.800Z,55.4
2019-04-23T15:08:04.077Z,55.0
2019-04-23T15:09:57.680Z,55.3
2019-04-23T15:11:08.203Z,56.0
2019-04-23T15:12:04.891Z,55.4
2019-04-23T15:13:55.293Z,56.0
2019-04-23T15:16:08.072Z,55.5
2019-04-23T15:16:59.959Z,55.4
2019-04-23T15:18:07.477Z,55.5
2019-04-23T15:19:15.731Z,55.4
2019-04-23T15:20:03.274Z,54.6
2019-04-23T15:21:31.357Z,55.4
2019-04-23T15:22:17.447Z,55.3
2019-04-23T15:24:15.957Z,54.8
2019-04-23T15:27:02.416Z,54.6
2019-04-23T15:28:58.700Z,53.7
2019-04-23T15:30:09.203Z,53.9
2019-04-23T15:32:31.319Z,53.5
2019-04-23T15:33:26.059Z,54.0
2019-04-23T15:35:31.608Z,52.8
2019-04-23T15:37:41.438Z,52.6
2019-04-23T15:39:31.066Z,54.3
2019-04-23T15:41:43.924Z,54.5
2019-04-23T15:43:41.533Z,54.9
2019-04-23T15:44:32.355Z,54.5
2019-04-23T15:46:53.266Z,54.5
2019-04-23T15:48:53.894Z,53.3
2019-04-23T15:49:55.485Z,53.5
2019-04-23T15:51:52.058Z,52.9
2019-04-23T15:53:56.454Z,53.0
2019-04-23T15:54:58.702Z,52.4
2019-04-23T15:55:59.724Z,52.4
2019-04-23T15:56:56.489Z,51.8
2019-04-23T15:59:13.253Z,52.3
2019-04-23T15:59:58.695Z,52.9
2019-04-23T16:01:10.792Z,52.9
2019-04-23T16:01:41.904Z,52.6
2019-04-23T16:02:36.653Z,52.6
2019-04-23T16:03:40.210Z,52.4
2019-04-23T16:04:39.936Z,52.4
2019-04-23T16:05:41.275Z,52.5
2019-04-23T16:06:43.523Z,52.2
2019-04-23T16:08:05.987Z,52.6
2019-04-23T16:09:06.498Z,52.4
2019-04-23T16:10:19.102Z,52.6
2019-04-23T16:11:29.736Z,52.8
2019-04-23T16:12:11.674Z,52.9
2019-04-23T16:13:30.963Z,53.3
2019-04-23T16:18:35.184Z,53.3
2019-04-23T16:19:24.759Z,53.4
2019-04-23T16:20:37.576Z,52.7
2019-04-23T16:21:44.553Z,53.2
2019-04-23T16:22:33.224Z,53.5
2019-04-23T16:23:38.289Z,53.6
2019-04-23T16:24:26.696Z,53.5
2019-04-23T16:25:31.725Z,52.9
2019-04-23T16:26:45.126Z,53.8
2019-04-23T16:27:36.633Z,53.7
2019-04-23T16:29:02.893Z,53.1
2019-04-23T16:29:55.201Z,53.3
2019-04-23T16:30:41.045Z,53.4
2019-04-23T16:32:57.810Z,53.8
2019-04-23T16:33:50.846Z,53.5
2019-04-23T16:34:39.383Z,53.5
2019-04-23T16:36:00.010Z,53.9
2019-04-23T16:36:55.310Z,53.9
2019-04-23T16:38:01.758Z,54.1